TAF KTVF
KTVF 280535Z 2806/2906 29010KT P6SM SKC FM281200 VRB06KT P6SM SCT200 FM282200 15010KT P6SM BKN150=
METAR KTVF
WC KTVF
WS KTVF
WV KTVF